createdAt,value
2022-12-19T00:01:39.502Z,2.40
2022-12-19T00:04:09.197Z,2.50
2022-12-19T00:06:38.830Z,2.50
2022-12-19T00:09:11.604Z,2.20
2022-12-19T00:11:39.229Z,2.30
2022-12-19T00:14:06.889Z,2.50
2022-12-19T00:16:34.457Z,2.50
2022-12-19T00:19:02.461Z,2.40
2022-12-19T00:21:31.227Z,2.40
2022-12-19T00:24:09.863Z,2.60
2022-12-19T00:26:49.996Z,2.70
2022-12-19T00:29:17.645Z,2.70
2022-12-19T00:31:45.780Z,2.70
2022-12-19T00:34:15.372Z,2.70
2022-12-19T00:36:42.876Z,2.70
2022-12-19T00:39:11.847Z,2.70
2022-12-19T00:41:42.208Z,2.70
2022-12-19T00:44:12.028Z,2.80
2022-12-19T00:46:39.566Z,2.60
2022-12-19T00:49:07.377Z,2.40
2022-12-19T00:51:36.277Z,2.20
2022-12-19T00:54:05.385Z,2.30
2022-12-19T00:56:37.980Z,2.20
2022-12-19T00:59:07.437Z,2.20
2022-12-19T01:01:37.306Z,2.60
2022-12-19T01:06:57.911Z,2.70
2022-12-19T01:09:32.515Z,2.60
2022-12-19T01:12:18.516Z,2.70
2022-12-19T01:14:45.980Z,2.70
2022-12-19T01:17:13.476Z,2.90
2022-12-19T01:19:44.382Z,3.00
2022-12-19T01:22:13.304Z,3.00
2022-12-19T01:24:41.142Z,3.10
2022-12-19T01:27:09.201Z,3.20
2022-12-19T01:29:39.933Z,3.20
2022-12-19T01:32:20.831Z,3.20
2022-12-19T01:34:48.405Z,3.20
2022-12-19T01:37:15.911Z,2.90
2022-12-19T01:39:43.425Z,2.90
2022-12-19T01:42:16.639Z,2.80
2022-12-19T01:45:30.247Z,2.90
2022-12-19T01:48:03.686Z,2.90
2022-12-19T01:50:52.913Z,2.80
2022-12-19T01:53:31.896Z,2.80
2022-12-19T01:55:59.458Z,2.80
2022-12-19T01:58:26.865Z,2.80
2022-12-19T02:00:54.551Z,2.80
2022-12-19T02:03:28.056Z,2.80
2022-12-19T02:05:55.710Z,2.80
2022-12-19T02:08:24.861Z,2.90
2022-12-19T02:10:52.672Z,2.90
2022-12-19T02:13:21.196Z,3.00
2022-12-19T02:15:48.650Z,3.10
2022-12-19T02:18:19.174Z,3.10
2022-12-19T02:21:07.420Z,3.10
2022-12-19T02:23:54.734Z,3.30
2022-12-19T02:26:35.053Z,3.30
2022-12-19T02:29:21.283Z,3.40
2022-12-19T02:31:50.139Z,3.30
2022-12-19T02:34:33.491Z,3.40
2022-12-19T02:37:24.864Z,3.30
2022-12-19T02:39:59.916Z,3.10
2022-12-19T02:42:31.713Z,3.30
2022-12-19T02:45:03.468Z,3.40
2022-12-19T02:47:32.161Z,3.40
2022-12-19T02:50:01.546Z,3.50
2022-12-19T02:52:29.075Z,3.60
2022-12-19T02:54:58.887Z,3.60
2022-12-19T02:57:30.187Z,3.40
2022-12-19T03:00:02.961Z,3.20
2022-12-19T03:02:42.374Z,3.40
2022-12-19T03:05:23.422Z,3.40
2022-12-19T03:07:57.195Z,3.60
2022-12-19T03:10:34.128Z,3.60
2022-12-19T03:13:13.908Z,3.60
2022-12-19T03:15:41.917Z,3.50
2022-12-19T03:18:09.679Z,3.60
2022-12-19T03:20:49.508Z,3.70
2022-12-19T03:23:17.416Z,3.80
2022-12-19T03:25:48.623Z,3.70
2022-12-19T03:28:34.876Z,3.40
2022-12-19T03:31:03.069Z,3.50
2022-12-19T03:33:32.787Z,3.60
2022-12-19T03:36:01.671Z,3.80
2022-12-19T03:38:29.394Z,3.80
2022-12-19T03:40:57.165Z,3.70
2022-12-19T03:43:26.346Z,3.60
2022-12-19T03:46:11.070Z,3.60
2022-12-19T03:48:41.632Z,3.80
2022-12-19T03:51:17.393Z,3.80
2022-12-19T03:53:59.416Z,3.90
2022-12-19T03:56:36.279Z,4.00
2022-12-19T03:59:10.118Z,3.80
2022-12-19T04:01:39.008Z,3.70
2022-12-19T04:04:07.079Z,3.60
2022-12-19T04:06:35.244Z,3.60
2022-12-19T04:09:03.146Z,3.50
2022-12-19T04:11:34.472Z,3.50
2022-12-19T04:14:04.961Z,3.60
2022-12-19T04:16:32.432Z,3.60
2022-12-19T04:19:04.234Z,3.80
2022-12-19T04:21:35.593Z,3.80
2022-12-19T04:24:06.389Z,3.80
2022-12-19T04:26:35.097Z,3.80
2022-12-19T04:29:03.973Z,3.60
2022-12-19T04:31:31.539Z,3.50
2022-12-19T04:33:59.087Z,3.60
2022-12-19T04:36:26.754Z,3.60
2022-12-19T04:38:54.319Z,3.80
2022-12-19T04:41:21.938Z,3.90
2022-12-19T04:43:49.559Z,4.00
2022-12-19T04:46:17.150Z,4.10
2022-12-19T04:48:44.679Z,4.10
2022-12-19T04:51:12.108Z,4.10
2022-12-19T04:53:39.750Z,4.00
2022-12-19T04:56:07.543Z,4.00
2022-12-19T04:58:35.108Z,4.00
2022-12-19T05:01:03.493Z,4.00
2022-12-19T05:03:31.328Z,3.90
2022-12-19T05:06:09.356Z,3.90
2022-12-19T05:08:38.054Z,3.70
2022-12-19T05:11:06.144Z,3.80
2022-12-19T05:13:33.700Z,3.80
2022-12-19T05:16:02.817Z,3.60
2022-12-19T05:18:30.344Z,3.40
2022-12-19T05:20:57.932Z,3.50
2022-12-19T05:23:25.731Z,3.70
2022-12-19T05:25:53.221Z,3.70
2022-12-19T05:28:20.708Z,3.60
2022-12-19T05:30:52.291Z,3.60
2022-12-19T05:33:20.126Z,3.50
2022-12-19T05:35:47.974Z,3.60
2022-12-19T05:38:15.502Z,3.70
2022-12-19T05:40:43.019Z,3.80
2022-12-19T05:43:10.442Z,3.90
2022-12-19T05:45:39.000Z,3.90
2022-12-19T05:48:06.570Z,3.80
2022-12-19T05:50:37.113Z,3.80
2022-12-19T05:53:09.782Z,3.80
2022-12-19T05:55:37.263Z,3.90
2022-12-19T05:58:04.717Z,4.00
2022-12-19T06:00:32.250Z,4.00
2022-12-19T06:02:59.968Z,3.70
2022-12-19T06:05:27.510Z,3.60
2022-12-19T06:07:56.357Z,3.60
2022-12-19T06:10:23.814Z,3.60
2022-12-19T06:12:51.626Z,3.40
2022-12-19T06:15:19.035Z,3.50
2022-12-19T06:17:46.484Z,3.70
2022-12-19T06:20:14.012Z,3.70
2022-12-19T06:22:41.464Z,3.80
2022-12-19T06:25:09.650Z,3.80
2022-12-19T06:27:37.131Z,3.80
2022-12-19T06:30:04.896Z,3.80
2022-12-19T06:32:37.681Z,3.80
2022-12-19T06:35:05.977Z,3.80
2022-12-19T06:37:33.483Z,3.70
2022-12-19T06:40:00.987Z,3.60
2022-12-19T06:42:28.462Z,3.60
2022-12-19T06:44:56.689Z,3.80
2022-12-19T06:47:25.284Z,3.80
2022-12-19T06:49:53.810Z,3.80
2022-12-19T06:52:21.388Z,3.70
2022-12-19T06:54:48.911Z,3.70
2022-12-19T06:57:16.322Z,3.70
2022-12-19T06:59:43.816Z,3.80
2022-12-19T07:02:20.621Z,3.70
2022-12-19T07:04:51.124Z,3.70
2022-12-19T07:07:18.820Z,3.90
2022-12-19T07:09:46.230Z,3.80
2022-12-19T07:12:13.710Z,3.60
2022-12-19T07:14:41.215Z,3.60
2022-12-19T07:17:08.774Z,3.60
2022-12-19T07:19:36.519Z,3.60
2022-12-19T07:22:04.476Z,3.70
2022-12-19T07:24:32.280Z,3.60
2022-12-19T07:26:59.849Z,3.60
2022-12-19T07:29:27.391Z,3.70
2022-12-19T07:31:54.916Z,3.70
2022-12-19T07:34:22.505Z,3.80
2022-12-19T07:36:50.106Z,4.00
2022-12-19T07:39:17.563Z,3.80
2022-12-19T07:41:45.207Z,4.00
2022-12-19T07:44:13.633Z,4.10
2022-12-19T07:46:41.131Z,4.10
2022-12-19T07:49:08.984Z,4.20
2022-12-19T07:51:36.516Z,4.30
2022-12-19T07:54:04.171Z,4.30
2022-12-19T07:56:31.690Z,4.40
2022-12-19T07:59:00.027Z,4.40
2022-12-19T08:01:28.252Z,4.30
2022-12-19T08:03:57.379Z,4.20
2022-12-19T08:06:24.994Z,4.20
2022-12-19T08:08:52.407Z,4.10
2022-12-19T08:11:27.663Z,4.30
2022-12-19T08:13:55.678Z,4.30
2022-12-19T08:16:24.773Z,4.40
2022-12-19T08:18:52.778Z,4.50
2022-12-19T08:21:20.224Z,4.30
2022-12-19T08:23:47.916Z,4.30
2022-12-19T08:26:16.771Z,4.30
2022-12-19T08:28:48.319Z,4.30
2022-12-19T08:31:17.322Z,4.40
2022-12-19T08:33:45.643Z,4.40
2022-12-19T08:36:14.663Z,4.30
2022-12-19T08:38:42.208Z,4.30
2022-12-19T08:41:09.830Z,4.50
2022-12-19T08:43:38.391Z,4.60
2022-12-19T08:46:06.327Z,4.60
2022-12-19T08:48:34.392Z,4.60
2022-12-19T08:51:06.104Z,4.70
2022-12-19T08:53:34.911Z,4.80
2022-12-19T08:56:06.056Z,4.80
2022-12-19T08:58:33.983Z,4.70
2022-12-19T09:01:05.635Z,4.70
2022-12-19T09:03:42.867Z,4.60
2022-12-19T09:06:21.105Z,4.80
2022-12-19T09:08:48.585Z,4.70
2022-12-19T09:11:17.065Z,4.80
2022-12-19T09:13:45.119Z,4.80
2022-12-19T09:16:14.367Z,4.90
2022-12-19T09:18:48.036Z,4.90
2022-12-19T09:21:16.464Z,4.80
2022-12-19T09:23:47.865Z,4.90
2022-12-19T09:26:17.301Z,4.80
2022-12-19T09:28:45.717Z,4.70
2022-12-19T09:31:14.982Z,4.60
2022-12-19T09:33:43.895Z,4.70
2022-12-19T09:36:12.458Z,4.70
2022-12-19T09:38:40.007Z,4.70
2022-12-19T09:41:13.727Z,4.90
2022-12-19T09:44:02.311Z,4.90
2022-12-19T09:46:30.474Z,5.00
2022-12-19T09:48:58.070Z,5.00
2022-12-19T09:51:36.908Z,5.00
2022-12-19T09:54:16.608Z,5.00
2022-12-19T09:56:45.737Z,5.00
2022-12-19T09:59:20.371Z,5.00
2022-12-19T10:02:13.663Z,5.10
2022-12-19T10:04:43.804Z,5.10
2022-12-19T10:07:33.155Z,5.10
2022-12-19T10:12:36.791Z,5.30
2022-12-19T10:13:13.259Z,5.20
2022-12-19T10:15:41.089Z,5.40
2022-12-19T10:18:35.811Z,5.40
2022-12-19T10:21:08.363Z,5.40
2022-12-19T10:23:53.025Z,5.30
2022-12-19T10:26:30.123Z,5.10
2022-12-19T10:29:13.535Z,5.10
2022-12-19T10:32:07.147Z,5.10
2022-12-19T10:34:41.194Z,5.40
2022-12-19T10:37:38.488Z,5.30
2022-12-19T10:40:16.155Z,5.30
2022-12-19T10:43:22.958Z,5.20
2022-12-19T10:45:55.542Z,5.20
2022-12-19T10:48:30.343Z,4.90
2022-12-19T10:51:03.570Z,5.10
2022-12-19T10:53:34.567Z,5.20
2022-12-19T10:56:11.620Z,5.40
2022-12-19T10:58:43.713Z,5.30
2022-12-19T11:01:13.840Z,5.40
2022-12-19T11:03:44.004Z,5.40
2022-12-19T11:06:33.529Z,5.40
2022-12-19T11:09:22.293Z,5.10
2022-12-19T11:16:44.061Z,5.00
2022-12-19T11:17:26.326Z,5.20
2022-12-19T11:29:02.645Z,5.10
2022-12-19T11:29:25.476Z,5.20
2022-12-19T11:30:37.377Z,5.40
2022-12-19T11:30:41.453Z,5.40
2022-12-19T11:30:41.735Z,5.50
2022-12-19T11:34:30.350Z,5.30
2022-12-19T11:37:01.698Z,5.50
2022-12-19T11:39:33.501Z,5.70
2022-12-19T11:42:14.624Z,5.50
2022-12-19T11:44:42.170Z,5.60
2022-12-19T11:47:29.856Z,5.70
2022-12-19T11:50:01.670Z,5.60
2022-12-19T11:53:03.870Z,5.50
2022-12-19T11:55:28.364Z,5.50
2022-12-19T11:57:55.985Z,5.70
2022-12-19T12:00:24.706Z,5.90
2022-12-19T12:03:10.626Z,5.80
2022-12-19T12:05:48.558Z,5.70
2022-12-19T12:10:08.507Z,5.70
2022-12-19T12:18:56.711Z,5.70
2022-12-19T12:24:50.993Z,5.70
2022-12-19T12:30:59.576Z,5.70
2022-12-19T12:31:12.075Z,5.80
2022-12-19T12:31:49.685Z,6.20
2022-12-19T12:32:06.760Z,6.10
2022-12-19T12:35:19.930Z,6.10
2022-12-19T12:35:36.470Z,6.00
2022-12-19T12:38:44.169Z,5.80
2022-12-19T12:41:49.375Z,5.80
2022-12-19T12:44:17.194Z,6.00
2022-12-19T12:46:52.039Z,5.90
2022-12-19T12:49:29.011Z,6.10
2022-12-19T12:51:57.252Z,6.00
2022-12-19T12:54:26.888Z,6.00
2022-12-19T12:56:55.472Z,6.00
2022-12-19T12:59:27.727Z,6.20
2022-12-19T13:01:58.519Z,6.30
2022-12-19T13:04:31.803Z,6.50
2022-12-19T13:07:04.565Z,6.40
2022-12-19T13:09:36.778Z,6.60
2022-12-19T13:12:35.633Z,6.60
2022-12-19T13:15:21.610Z,6.60
2022-12-19T13:17:49.434Z,6.60
2022-12-19T13:20:16.910Z,6.60
2022-12-19T13:22:45.562Z,6.50
2022-12-19T13:25:31.721Z,6.30
2022-12-19T13:28:14.676Z,6.30
2022-12-19T13:31:21.021Z,6.10
2022-12-19T13:33:55.920Z,6.30
2022-12-19T13:39:50.986Z,6.40
2022-12-19T13:39:55.641Z,6.40
2022-12-19T13:42:41.333Z,6.50
2022-12-19T13:45:13.361Z,6.50
2022-12-19T13:47:42.714Z,6.60
2022-12-19T13:50:25.584Z,6.70
2022-12-19T13:52:53.592Z,6.70
2022-12-19T13:55:21.377Z,6.60
2022-12-19T13:57:49.767Z,6.60
2022-12-19T14:00:18.466Z,6.50
2022-12-19T14:02:54.583Z,6.60
2022-12-19T14:05:33.984Z,6.60
2022-12-19T14:08:17.381Z,6.30
2022-12-19T14:11:34.574Z,6.20
2022-12-19T14:14:03.366Z,6.20
2022-12-19T14:16:43.910Z,6.30
2022-12-19T14:19:19.719Z,6.40
2022-12-19T14:22:09.702Z,6.40
2022-12-19T14:24:35.019Z,6.40
2022-12-19T14:28:20.371Z,6.30
2022-12-19T14:30:30.971Z,6.30
2022-12-19T14:33:45.422Z,6.40
2022-12-19T14:36:08.326Z,6.40
2022-12-19T14:39:22.025Z,6.30
2022-12-19T14:41:46.816Z,6.40
2022-12-19T14:51:51.772Z,6.40
2022-12-19T14:54:05.591Z,6.40
2022-12-19T14:54:15.965Z,6.40
2022-12-19T14:54:29.350Z,6.30
2022-12-19T14:58:58.220Z,6.30
2022-12-19T15:01:33.154Z,6.40
2022-12-19T15:04:53.134Z,6.40
2022-12-19T15:07:16.430Z,6.30
2022-12-19T15:11:02.797Z,6.30
2022-12-19T15:14:52.223Z,6.30
2022-12-19T15:16:05.181Z,6.20
2022-12-19T15:18:32.895Z,6.10
2022-12-19T15:21:01.612Z,6.10
2022-12-19T15:23:29.691Z,6.10
2022-12-19T15:26:03.994Z,6.10
2022-12-19T15:28:50.256Z,6.10
2022-12-19T15:31:38.546Z,6.10
2022-12-19T15:34:34.367Z,6.10
2022-12-19T15:37:00.951Z,5.80
2022-12-19T15:39:30.386Z,5.60
2022-12-19T15:41:59.286Z,5.50
2022-12-19T15:44:31.571Z,5.40
2022-12-19T15:47:00.015Z,5.40
2022-12-19T15:49:27.494Z,5.40
2022-12-19T15:51:55.176Z,5.40
2022-12-19T15:54:48.051Z,5.40
2022-12-19T15:57:19.842Z,5.40
2022-12-19T15:59:48.101Z,5.50
2022-12-19T16:02:21.381Z,5.50
2022-12-19T16:04:50.308Z,5.50
2022-12-19T16:07:19.382Z,5.60
2022-12-19T16:09:47.112Z,5.50
2022-12-19T16:12:15.920Z,5.40
2022-12-19T16:14:43.979Z,5.30
2022-12-19T16:17:22.387Z,5.20
2022-12-19T16:19:50.189Z,5.20
2022-12-19T16:22:22.688Z,5.20
2022-12-19T16:24:50.996Z,5.20
2022-12-19T16:27:21.454Z,5.20
2022-12-19T16:29:48.998Z,5.30
2022-12-19T16:32:16.777Z,5.30
2022-12-19T16:34:44.261Z,5.30
2022-12-19T16:37:12.154Z,5.30
2022-12-19T16:39:39.791Z,5.20
2022-12-19T16:42:13.828Z,5.00
2022-12-19T16:44:41.411Z,5.00
2022-12-19T16:47:16.525Z,5.10
2022-12-19T16:49:44.935Z,5.10
2022-12-19T16:52:12.784Z,5.10
2022-12-19T16:54:40.278Z,5.00
2022-12-19T16:57:15.920Z,5.00
2022-12-19T16:59:43.520Z,5.00
2022-12-19T17:02:35.787Z,4.80
2022-12-19T17:05:04.505Z,4.90
2022-12-19T17:07:32.289Z,4.90
2022-12-19T17:09:59.820Z,5.00
2022-12-19T17:12:27.848Z,5.00
2022-12-19T17:14:55.447Z,5.00
2022-12-19T17:17:22.994Z,5.00
2022-12-19T17:19:50.548Z,5.10
2022-12-19T17:22:19.063Z,5.10
2022-12-19T17:24:47.386Z,5.00
2022-12-19T17:27:14.908Z,5.10
2022-12-19T17:29:42.415Z,5.00
2022-12-19T17:32:19.817Z,5.00
2022-12-19T17:34:50.943Z,4.90
2022-12-19T17:37:18.375Z,4.80
2022-12-19T17:39:45.892Z,4.80
2022-12-19T17:42:19.694Z,4.70
2022-12-19T17:44:47.231Z,4.90
2022-12-19T17:47:15.417Z,5.10
2022-12-19T17:49:42.929Z,5.20
2022-12-19T17:52:18.051Z,5.10
2022-12-19T17:54:45.660Z,5.10
2022-12-19T17:57:16.859Z,4.90
2022-12-19T17:59:46.571Z,4.90
2022-12-19T18:02:24.762Z,4.90
2022-12-19T18:04:52.838Z,5.00
2022-12-19T18:07:20.538Z,5.10
2022-12-19T18:09:48.191Z,5.20
2022-12-19T18:12:15.822Z,5.10
2022-12-19T18:14:43.603Z,4.90
2022-12-19T18:17:16.392Z,4.90
2022-12-19T18:19:43.990Z,4.90
2022-12-19T18:22:15.013Z,4.90
2022-12-19T18:24:42.705Z,4.90
2022-12-19T18:27:10.202Z,4.90
2022-12-19T18:29:37.719Z,5.00
2022-12-19T18:32:05.298Z,4.90
2022-12-19T18:34:33.557Z,4.90
2022-12-19T18:37:02.227Z,5.00
2022-12-19T18:39:30.857Z,5.10
2022-12-19T18:41:58.329Z,5.10
2022-12-19T18:44:25.869Z,5.00
2022-12-19T18:46:53.539Z,4.90
2022-12-19T18:49:21.048Z,4.90
2022-12-19T18:51:48.517Z,5.00
2022-12-19T18:54:20.549Z,5.20
2022-12-19T18:56:48.318Z,5.00
2022-12-19T18:59:15.704Z,4.90
2022-12-19T19:01:44.637Z,5.00
2022-12-19T19:04:13.429Z,5.00
2022-12-19T19:06:46.559Z,5.00
2022-12-19T19:09:18.342Z,5.10
2022-12-19T19:11:59.478Z,5.20
2022-12-19T19:14:27.084Z,5.10
2022-12-19T19:16:54.792Z,5.00
2022-12-19T19:19:23.343Z,5.10
2022-12-19T19:21:51.483Z,5.20
2022-12-19T19:24:20.865Z,5.20
2022-12-19T19:26:48.682Z,5.30
2022-12-19T19:29:19.042Z,5.00
2022-12-19T19:31:48.324Z,4.90
2022-12-19T19:34:21.877Z,4.80
2022-12-19T19:36:54.176Z,4.90
2022-12-19T19:39:23.109Z,4.80
2022-12-19T19:41:50.721Z,4.80
2022-12-19T19:44:18.303Z,4.80
2022-12-19T19:46:46.339Z,5.00
2022-12-19T19:49:14.148Z,5.10
2022-12-19T19:51:41.707Z,5.30
2022-12-19T19:54:09.181Z,5.40
2022-12-19T19:56:36.703Z,5.30
2022-12-19T19:59:04.589Z,5.20
2022-12-19T20:01:32.591Z,5.20
2022-12-19T20:04:00.240Z,5.20
2022-12-19T20:06:27.706Z,5.30
2022-12-19T20:08:55.268Z,5.40
2022-12-19T20:11:22.795Z,5.20
2022-12-19T20:13:50.279Z,5.20
2022-12-19T20:16:19.092Z,5.20
2022-12-19T20:18:47.988Z,5.30
2022-12-19T20:21:15.786Z,5.30
2022-12-19T20:23:43.633Z,5.30
2022-12-19T20:26:12.417Z,5.20
2022-12-19T20:28:47.955Z,5.20
2022-12-19T20:31:20.832Z,5.20
2022-12-19T20:33:48.958Z,5.10
2022-12-19T20:36:17.367Z,5.20
2022-12-19T20:38:45.348Z,5.30
2022-12-19T20:41:13.063Z,5.20
2022-12-19T20:43:43.411Z,5.10
2022-12-19T20:46:12.655Z,5.30
2022-12-19T20:48:40.610Z,5.30
2022-12-19T20:51:08.944Z,5.30
2022-12-19T20:53:37.131Z,5.30
2022-12-19T20:56:05.628Z,5.30
2022-12-19T20:58:34.154Z,5.30
2022-12-19T21:01:06.541Z,5.30
2022-12-19T21:03:35.079Z,5.30
2022-12-19T21:06:03.556Z,5.30
2022-12-19T21:08:31.465Z,5.30
2022-12-19T21:10:59.914Z,5.40
2022-12-19T21:13:27.863Z,5.40
2022-12-19T21:15:56.312Z,5.50
2022-12-19T21:18:25.482Z,5.40
2022-12-19T21:20:53.732Z,5.40
2022-12-19T21:23:22.601Z,5.50
2022-12-19T21:25:50.878Z,5.30
2022-12-19T21:28:19.241Z,5.10
2022-12-19T21:30:47.531Z,5.20
2022-12-19T21:33:14.962Z,5.30
2022-12-19T21:35:42.512Z,5.40
2022-12-19T21:38:09.986Z,5.50
2022-12-19T21:40:37.727Z,5.40
2022-12-19T21:43:11.433Z,5.30
2022-12-19T21:45:39.876Z,5.40
2022-12-19T21:48:07.400Z,5.40
2022-12-19T21:50:34.858Z,5.40
2022-12-19T21:53:02.600Z,5.40
2022-12-19T21:55:30.122Z,5.40
2022-12-19T21:57:57.864Z,5.50
2022-12-19T22:00:25.605Z,5.30
2022-12-19T22:03:12.620Z,5.30
2022-12-19T22:05:40.677Z,5.40
2022-12-19T22:08:09.429Z,5.30
2022-12-19T22:10:38.214Z,5.40
2022-12-19T22:13:05.737Z,5.50
2022-12-19T22:15:35.297Z,5.40
2022-12-19T22:18:02.872Z,5.50
2022-12-19T22:20:30.475Z,5.50
2022-12-19T22:22:58.005Z,5.40
2022-12-19T22:25:25.585Z,5.30
2022-12-19T22:27:55.415Z,5.30
2022-12-19T22:30:23.003Z,5.30
2022-12-19T22:32:50.442Z,5.30
2022-12-19T22:35:17.899Z,5.10
2022-12-19T22:37:45.512Z,5.10
2022-12-19T22:40:13.458Z,5.20
2022-12-19T22:42:40.893Z,5.20
2022-12-19T22:45:08.767Z,5.40
2022-12-19T22:47:37.052Z,5.50
2022-12-19T22:50:04.823Z,5.60
2022-12-19T22:52:32.437Z,5.50
2022-12-19T22:54:59.956Z,5.50
2022-12-19T22:57:27.463Z,5.50
2022-12-19T22:59:54.932Z,5.50
2022-12-19T23:02:23.513Z,5.60
2022-12-19T23:04:51.198Z,5.50
2022-12-19T23:07:18.701Z,5.50
2022-12-19T23:09:46.128Z,5.40
2022-12-19T23:12:13.549Z,5.50
2022-12-19T23:14:41.252Z,5.60
2022-12-19T23:17:08.845Z,5.60
2022-12-19T23:19:36.339Z,5.50
2022-12-19T23:22:03.894Z,5.40
2022-12-19T23:24:31.685Z,5.40
2022-12-19T23:27:00.485Z,5.40
2022-12-19T23:29:28.112Z,5.50
2022-12-19T23:31:55.557Z,5.40
2022-12-19T23:34:23.030Z,5.30
2022-12-19T23:39:37.991Z,5.20
2022-12-19T23:42:05.547Z,5.20
2022-12-19T23:44:33.235Z,5.20
2022-12-19T23:47:03.339Z,5.20
2022-12-19T23:49:32.453Z,5.20
2022-12-19T23:51:59.953Z,5.40
2022-12-19T23:54:27.578Z,5.40
2022-12-19T23:56:55.007Z,5.30
2022-12-19T23:59:22.920Z,5.60
